createdAt,value
2022-11-01T00:04:06.019Z,14.93
2022-11-01T00:09:09.377Z,15.04
2022-11-01T00:14:13.770Z,15.07
2022-11-01T00:19:18.594Z,15.17
2022-11-01T00:24:22.029Z,15.24
2022-11-01T00:29:25.370Z,15.33
2022-11-01T00:34:30.139Z,15.36
2022-11-01T00:39:33.506Z,15.53
2022-11-01T00:44:36.886Z,15.51
2022-11-01T00:49:41.597Z,15.44
2022-11-01T00:54:44.993Z,15.48
2022-11-01T00:59:48.374Z,15.53
2022-11-01T01:04:53.236Z,15.64
2022-11-01T01:09:56.603Z,15.62
2022-11-01T01:14:59.960Z,15.65
2022-11-01T01:20:04.953Z,15.63
2022-11-01T01:25:08.666Z,15.70
2022-11-01T01:30:12.708Z,15.70
2022-11-01T01:35:17.489Z,15.80
2022-11-01T01:40:20.979Z,15.76
2022-11-01T01:45:29.532Z,15.78
2022-11-01T01:50:36.476Z,15.80
2022-11-01T01:55:43.428Z,15.92
2022-11-01T02:00:46.990Z,15.95
2022-11-01T02:05:53.192Z,16.02
2022-11-01T02:10:57.993Z,16.00
2022-11-01T02:16:22.395Z,16.00
2022-11-01T02:21:43.650Z,15.98
2022-11-01T02:27:02.512Z,16.03
2022-11-01T02:32:15.375Z,16.07
2022-11-01T02:37:24.113Z,16.04
2022-11-01T02:42:30.065Z,15.99
2022-11-01T02:47:35.117Z,16.02
2022-11-01T02:52:39.309Z,16.02
2022-11-01T02:57:42.962Z,16.13
2022-11-01T03:02:48.536Z,16.22
2022-11-01T03:07:53.901Z,16.23
2022-11-01T03:13:05.966Z,16.05
2022-11-01T03:18:14.045Z,15.98
2022-11-01T03:23:20.383Z,15.78
2022-11-01T03:28:25.561Z,15.66
2022-11-01T03:33:32.087Z,15.47
2022-11-01T03:38:37.482Z,15.36
2022-11-01T03:43:41.527Z,15.18
2022-11-01T03:48:46.299Z,15.08
2022-11-01T03:53:49.784Z,15.03
2022-11-01T03:58:53.217Z,14.97
2022-11-01T04:03:57.942Z,14.85
2022-11-01T04:09:01.344Z,14.70
2022-11-01T04:14:22.113Z,14.66
2022-11-01T04:19:43.638Z,14.60
2022-11-01T04:24:46.976Z,14.48
2022-11-01T04:29:50.331Z,14.36
2022-11-01T04:34:55.070Z,14.32
2022-11-01T04:39:58.461Z,14.29
2022-11-01T04:45:01.800Z,14.24
2022-11-01T04:50:07.213Z,14.13
2022-11-01T04:55:10.814Z,14.09
2022-11-01T05:00:14.853Z,14.01
2022-11-01T05:05:19.995Z,13.93
2022-11-01T05:10:23.397Z,13.84
2022-11-01T05:15:26.859Z,13.76
2022-11-01T05:20:31.978Z,13.76
2022-11-01T05:25:38.063Z,13.63
2022-11-01T05:30:42.263Z,13.53
2022-11-01T05:35:46.948Z,13.52
2022-11-01T05:40:50.526Z,13.42
2022-11-01T05:45:53.908Z,13.37
2022-11-01T05:50:58.642Z,13.30
2022-11-01T05:56:02.129Z,13.27
2022-11-01T06:01:06.419Z,13.15
2022-11-01T06:06:11.833Z,13.14
2022-11-01T06:11:16.001Z,13.14
2022-11-01T06:16:19.431Z,13.07
2022-11-01T06:21:27.615Z,12.99
2022-11-01T06:26:33.436Z,12.95
2022-11-01T06:31:36.880Z,12.89
2022-11-01T06:36:42.845Z,12.86
2022-11-01T06:41:46.186Z,12.82
2022-11-01T06:46:49.571Z,12.73
2022-11-01T06:51:54.419Z,12.71
2022-11-01T06:56:58.109Z,12.73
2022-11-01T07:02:01.829Z,12.70
2022-11-01T07:07:06.843Z,12.64
2022-11-01T07:12:10.242Z,12.61
2022-11-01T07:17:13.806Z,12.58
2022-11-01T07:22:18.512Z,12.57
2022-11-01T07:27:22.011Z,12.58
2022-11-01T07:32:25.475Z,12.58
2022-11-01T07:37:31.295Z,12.50
2022-11-01T07:42:34.787Z,12.52
2022-11-01T07:47:38.210Z,12.49
2022-11-01T07:52:42.944Z,12.52
2022-11-01T07:57:46.808Z,12.64
2022-11-01T08:02:50.589Z,12.58
2022-11-01T08:07:55.332Z,12.66
2022-11-01T08:13:02.794Z,12.74
2022-11-01T08:18:06.686Z,12.80
2022-11-01T08:23:11.625Z,12.81
2022-11-01T08:28:15.918Z,12.94
2022-11-01T08:33:19.332Z,13.08
2022-11-01T08:38:24.158Z,13.15
2022-11-01T08:43:27.594Z,13.22
2022-11-01T08:48:30.994Z,13.28
2022-11-01T08:53:35.853Z,13.36
2022-11-01T08:58:39.234Z,13.39
2022-11-01T09:03:42.800Z,13.56
2022-11-01T09:08:47.538Z,13.62
2022-11-01T09:13:51.233Z,13.69
2022-11-01T09:18:54.769Z,13.91
2022-11-01T09:23:59.912Z,13.94
2022-11-01T09:29:04.099Z,13.93
2022-11-01T09:34:07.502Z,13.97
2022-11-01T09:39:13.107Z,14.19
2022-11-01T09:44:18.566Z,14.10
2022-11-01T09:52:54.157Z,14.96
2022-11-01T09:58:04.205Z,14.96
2022-11-01T10:03:22.849Z,14.64
2022-11-01T10:08:39.158Z,14.92
2022-11-01T10:13:52.902Z,14.96
2022-11-01T10:19:04.457Z,15.19
2022-11-01T10:24:19.198Z,15.20
2022-11-01T10:29:29.053Z,15.54
2022-11-01T10:34:38.254Z,15.43
2022-11-01T10:39:55.607Z,15.70
2022-11-01T10:45:06.484Z,16.46
2022-11-01T10:50:18.237Z,16.39
2022-11-01T10:55:27.259Z,16.69
2022-11-01T11:00:33.631Z,16.57
2022-11-01T11:05:37.391Z,17.85
2022-11-01T11:10:43.371Z,18.81
2022-11-01T11:15:52.496Z,19.66
2022-11-01T11:21:00.145Z,19.58
2022-11-01T11:26:09.133Z,20.45
2022-11-01T11:31:15.372Z,20.61
2022-11-01T11:36:27.470Z,21.27
2022-11-01T11:41:35.216Z,21.62
2022-11-01T11:46:48.941Z,21.95
2022-11-01T11:51:54.323Z,22.65
2022-11-01T11:57:12.044Z,22.34
2022-11-01T12:02:20.799Z,21.19
2022-11-01T12:07:27.925Z,22.38
2022-11-01T12:12:35.095Z,23.34
2022-11-01T12:17:46.329Z,21.79
2022-11-01T12:22:53.293Z,21.86
2022-11-01T12:28:02.220Z,22.33
2022-11-01T12:38:34.909Z,22.44
2022-11-01T12:43:53.826Z,22.15
2022-11-01T12:49:03.241Z,22.43
2022-11-01T12:54:13.079Z,22.60
2022-11-01T12:59:25.776Z,22.53
2022-11-01T13:04:33.490Z,21.73
2022-11-01T13:09:47.154Z,23.86
2022-11-01T13:15:04.347Z,22.96
2022-11-01T13:20:34.666Z,23.38
2022-11-01T13:25:42.591Z,24.89
2022-11-01T13:30:55.323Z,24.33
2022-11-01T13:36:03.418Z,23.71
2022-11-01T13:41:19.732Z,23.75
2022-11-01T13:46:44.354Z,22.75
2022-11-01T13:51:55.165Z,23.84
2022-11-01T13:57:02.531Z,24.18
2022-11-01T14:02:50.079Z,24.23
2022-11-01T14:08:29.051Z,23.23
2022-11-01T14:13:40.652Z,23.56
2022-11-01T14:19:20.576Z,22.54
2022-11-01T14:24:35.189Z,22.21
2022-11-01T14:29:39.081Z,21.77
2022-11-01T14:34:45.757Z,20.96
2022-11-01T14:39:58.071Z,20.21
2022-11-01T14:45:20.379Z,21.74
2022-11-01T14:50:29.761Z,21.14
2022-11-01T14:55:37.534Z,21.00
2022-11-01T15:00:42.322Z,20.86
2022-11-01T15:05:48.658Z,20.08
2022-11-01T15:10:55.728Z,19.07
2022-11-01T15:16:08.439Z,18.88
2022-11-01T15:26:26.730Z,18.47
2022-11-01T15:31:31.085Z,18.05
2022-11-01T15:36:36.972Z,17.63
2022-11-01T15:41:42.538Z,17.60
2022-11-01T15:46:46.662Z,17.51
2022-11-01T15:51:54.042Z,17.41
2022-11-01T15:57:03.141Z,17.19
2022-11-01T16:02:13.976Z,16.94
2022-11-01T16:07:20.578Z,17.06
2022-11-01T16:12:30.849Z,16.82
2022-11-01T16:17:37.335Z,16.79
2022-11-01T16:22:47.861Z,16.91
2022-11-01T16:28:05.264Z,16.91
2022-11-01T16:33:16.969Z,16.80
2022-11-01T16:38:29.849Z,16.53
2022-11-01T16:43:36.254Z,16.51
2022-11-01T16:48:52.119Z,16.56
2022-11-01T16:53:56.743Z,16.43
2022-11-01T16:59:08.281Z,16.38
2022-11-01T17:04:14.094Z,16.33
2022-11-01T17:09:20.397Z,16.26
2022-11-01T17:14:26.333Z,16.28
2022-11-01T17:19:35.074Z,16.16
2022-11-01T17:24:39.251Z,16.07
2022-11-01T17:29:44.249Z,16.08
2022-11-01T17:34:49.260Z,16.06
2022-11-01T17:39:53.139Z,16.03
2022-11-01T17:44:58.167Z,15.98
2022-11-01T17:50:02.385Z,15.99
2022-11-01T17:55:07.766Z,15.94
2022-11-01T18:00:13.867Z,15.83
2022-11-01T18:05:18.610Z,15.73
2022-11-01T18:10:25.326Z,15.77
2022-11-01T18:15:39.332Z,15.80
2022-11-01T18:20:49.898Z,15.65
2022-11-01T18:25:53.714Z,15.71
2022-11-01T18:31:00.250Z,15.53
2022-11-01T18:36:09.465Z,15.60
2022-11-01T18:41:19.715Z,15.58
2022-11-01T18:46:27.460Z,15.56
2022-11-01T18:51:33.311Z,15.66
2022-11-01T18:56:38.296Z,15.46
2022-11-01T19:01:43.907Z,15.46
2022-11-01T19:06:47.763Z,15.46
2022-11-01T19:11:58.460Z,15.45
2022-11-01T19:17:04.396Z,15.34
2022-11-01T19:22:28.784Z,15.19
2022-11-01T19:27:32.661Z,15.44
2022-11-01T19:32:37.718Z,15.22
2022-11-01T19:37:43.248Z,15.16
2022-11-01T19:42:46.963Z,15.16
2022-11-01T19:47:52.404Z,15.18
2022-11-01T19:52:58.612Z,15.03
2022-11-01T19:58:02.919Z,15.03
2022-11-01T20:03:21.773Z,14.98
2022-11-01T20:08:33.055Z,15.04
2022-11-01T20:13:36.975Z,15.01
2022-11-01T20:18:42.186Z,15.04
2022-11-01T20:23:46.009Z,15.02
2022-11-01T20:28:50.112Z,14.77
2022-11-01T20:33:55.220Z,14.52
2022-11-01T20:38:58.887Z,14.22
2022-11-01T20:44:02.589Z,13.92
2022-11-01T20:49:08.066Z,13.62
2022-11-01T20:54:17.470Z,13.38
2022-11-01T20:59:21.658Z,13.27
2022-11-01T21:04:27.374Z,13.19
2022-11-01T21:09:33.427Z,13.25
2022-11-01T21:14:37.925Z,13.31
2022-11-01T21:19:43.340Z,13.29
2022-11-01T21:24:48.830Z,13.12
2022-11-01T21:29:53.139Z,12.99
2022-11-01T21:34:58.892Z,13.05
2022-11-01T21:40:06.737Z,13.05
2022-11-01T21:45:30.205Z,12.90
2022-11-01T21:50:35.328Z,13.00
2022-11-01T21:55:39.045Z,13.07
2022-11-01T22:00:42.684Z,13.10
2022-11-01T22:05:47.765Z,13.03
2022-11-01T22:10:51.450Z,12.99
2022-11-01T22:15:55.157Z,12.99
2022-11-01T22:21:00.153Z,13.03
2022-11-01T22:26:03.993Z,13.03
2022-11-01T22:31:07.807Z,13.01
2022-11-01T22:36:20.081Z,13.04
2022-11-01T22:41:31.603Z,13.01
2022-11-01T22:46:47.610Z,13.01
2022-11-01T22:51:55.971Z,12.93
2022-11-01T22:57:04.148Z,12.93
2022-11-01T23:02:26.980Z,13.01
2022-11-01T23:07:35.549Z,13.00
2022-11-01T23:12:56.935Z,13.08
2022-11-01T23:18:06.466Z,13.09
2022-11-01T23:23:16.679Z,13.23
2022-11-01T23:28:20.695Z,13.32
2022-11-01T23:33:33.728Z,13.39
2022-11-01T23:38:41.826Z,13.44
2022-11-01T23:43:45.774Z,13.42
2022-11-01T23:48:50.211Z,13.10
2022-11-01T23:53:57.037Z,12.83
2022-11-01T23:59:04.245Z,12.73
